createdAt,value
2023-03-21T00:01:27.807Z,11.20
2023-03-21T00:03:56.256Z,11.20
2023-03-21T00:06:24.627Z,11.20
2023-03-21T00:08:53.641Z,11.20
2023-03-21T00:11:22.399Z,11.20
2023-03-21T00:13:51.036Z,11.20
2023-03-21T00:16:25.290Z,11.20
2023-03-21T00:19:03.263Z,11.10
2023-03-21T00:24:21.010Z,11.00
2023-03-21T00:26:49.833Z,11.00
2023-03-21T00:29:19.126Z,11.00
2023-03-21T00:31:48.373Z,11.00
2023-03-21T00:34:22.778Z,11.00
2023-03-21T00:37:01.791Z,11.00
2023-03-21T00:39:30.325Z,10.90
2023-03-21T00:41:58.705Z,10.90
2023-03-21T00:44:27.131Z,10.90
2023-03-21T00:47:06.528Z,10.90
2023-03-21T00:49:38.679Z,10.90
2023-03-21T00:52:17.096Z,10.90
2023-03-21T00:54:53.185Z,10.90
2023-03-21T00:57:29.330Z,10.90
2023-03-21T01:00:00.999Z,10.90
2023-03-21T01:02:29.395Z,10.90
2023-03-21T01:05:00.355Z,10.90
2023-03-21T01:07:28.770Z,10.90
2023-03-21T01:09:57.226Z,10.90
2023-03-21T01:12:27.707Z,10.90
2023-03-21T01:14:57.779Z,10.90
2023-03-21T01:17:26.122Z,10.90
2023-03-21T01:19:54.685Z,10.90
2023-03-21T01:22:24.516Z,10.90
2023-03-21T01:24:58.507Z,10.80
2023-03-21T01:27:31.614Z,10.80
2023-03-21T01:30:00.207Z,10.80
2023-03-21T01:32:28.591Z,10.80
2023-03-21T01:34:57.067Z,10.80
2023-03-21T01:37:27.435Z,10.70
2023-03-21T01:39:55.924Z,10.70
2023-03-21T01:42:24.623Z,10.70
2023-03-21T01:44:58.905Z,10.70
2023-03-21T01:47:36.178Z,10.70
2023-03-21T01:50:22.421Z,10.70
2023-03-21T01:53:15.164Z,10.70
2023-03-21T01:55:44.230Z,10.60
2023-03-21T01:58:32.090Z,10.60
2023-03-21T02:01:02.957Z,10.60
2023-03-21T02:03:51.720Z,10.60
2023-03-21T02:06:50.410Z,10.60
2023-03-21T02:09:34.571Z,10.60
2023-03-21T02:12:05.192Z,10.60
2023-03-21T02:14:37.820Z,10.60
2023-03-21T02:17:24.843Z,10.50
2023-03-21T02:20:34.466Z,10.50
2023-03-21T02:23:40.141Z,10.40
2023-03-21T02:26:46.486Z,10.40
2023-03-21T02:29:46.882Z,10.30
2023-03-21T02:32:36.872Z,10.30
2023-03-21T02:35:52.409Z,10.30
2023-03-21T02:38:30.420Z,10.20
2023-03-21T02:41:13.216Z,10.20
2023-03-21T02:43:53.532Z,10.10
2023-03-21T02:46:33.436Z,10.10
2023-03-21T02:49:14.262Z,10.10
2023-03-21T02:51:44.689Z,10.10
2023-03-21T02:54:38.217Z,10.10
2023-03-21T02:57:08.835Z,10.10
2023-03-21T02:59:51.598Z,10.10
2023-03-21T03:02:29.739Z,10.10
2023-03-21T03:04:58.907Z,10.10
2023-03-21T03:07:38.801Z,10.10
2023-03-21T03:10:27.763Z,10.10
2023-03-21T03:13:09.227Z,10.10
2023-03-21T03:15:48.218Z,10.10
2023-03-21T03:18:26.142Z,10.00
2023-03-21T03:21:04.847Z,9.90
2023-03-21T03:23:44.169Z,9.90
2023-03-21T03:26:18.569Z,9.90
2023-03-21T03:28:52.525Z,9.80
2023-03-21T03:31:26.362Z,9.70
2023-03-21T03:34:03.241Z,9.70
2023-03-21T03:36:39.113Z,9.60
2023-03-21T03:39:15.547Z,9.60
2023-03-21T03:42:18.299Z,9.50
2023-03-21T03:44:53.075Z,9.50
2023-03-21T03:47:32.862Z,9.40
2023-03-21T03:50:10.446Z,9.40
2023-03-21T03:52:55.349Z,9.30
2023-03-21T03:55:34.635Z,9.30
2023-03-21T03:58:22.181Z,9.20
2023-03-21T04:00:53.351Z,9.20
2023-03-21T04:03:22.313Z,9.10
2023-03-21T04:05:51.446Z,9.10
2023-03-21T04:08:19.974Z,9.10
2023-03-21T04:10:53.696Z,9.10
2023-03-21T04:13:26.049Z,9.10
2023-03-21T04:16:13.096Z,9.00
2023-03-21T04:18:43.310Z,9.00
2023-03-21T04:21:14.068Z,9.00
2023-03-21T04:23:43.031Z,9.00
2023-03-21T04:26:11.592Z,8.90
2023-03-21T04:28:53.195Z,8.90
2023-03-21T04:31:41.972Z,8.90
2023-03-21T04:34:13.773Z,8.90
2023-03-21T04:36:47.595Z,8.80
2023-03-21T04:39:17.035Z,8.80
2023-03-21T04:41:49.850Z,8.70
2023-03-21T04:44:21.020Z,8.70
2023-03-21T04:46:50.336Z,8.70
2023-03-21T04:49:19.694Z,8.60
2023-03-21T04:51:48.175Z,8.60
2023-03-21T04:54:21.127Z,8.60
2023-03-21T04:56:49.847Z,8.60
2023-03-21T04:59:21.510Z,8.50
2023-03-21T05:01:50.112Z,8.50
2023-03-21T05:04:19.049Z,8.50
2023-03-21T05:06:47.820Z,8.50
2023-03-21T05:09:18.200Z,8.50
2023-03-21T05:11:46.763Z,8.50
2023-03-21T05:14:20.647Z,8.50
2023-03-21T05:16:53.701Z,8.50
2023-03-21T05:19:25.993Z,8.50
2023-03-21T05:21:55.001Z,8.50
2023-03-21T05:24:27.680Z,8.50
2023-03-21T05:27:02.067Z,8.60
2023-03-21T05:29:34.921Z,8.60
2023-03-21T05:32:06.701Z,8.70
2023-03-21T05:34:35.219Z,8.70
2023-03-21T05:37:03.639Z,8.80
2023-03-21T05:39:44.272Z,8.90
2023-03-21T05:42:19.663Z,9.30
2023-03-21T05:44:49.875Z,9.90
2023-03-21T05:47:23.482Z,10.60
2023-03-21T05:49:53.981Z,11.30
2023-03-21T05:52:23.899Z,11.90
2023-03-21T05:54:52.538Z,12.40
2023-03-21T05:57:24.335Z,13.00
2023-03-21T06:00:02.665Z,13.50
2023-03-21T06:02:32.520Z,14.20
2023-03-21T06:05:06.360Z,14.80
2023-03-21T06:07:37.162Z,15.40
2023-03-21T06:10:06.768Z,16.10
2023-03-21T06:12:35.866Z,16.60
2023-03-21T06:15:18.736Z,17.00
2023-03-21T06:17:56.475Z,17.10
2023-03-21T06:20:25.165Z,16.90
2023-03-21T06:22:57.578Z,16.80
2023-03-21T06:25:26.024Z,16.50
2023-03-21T06:27:54.404Z,16.20
2023-03-21T06:30:24.357Z,15.90
2023-03-21T06:33:06.213Z,15.60
2023-03-21T06:35:35.294Z,15.30
2023-03-21T06:38:03.993Z,15.10
2023-03-21T06:40:34.793Z,14.90
2023-03-21T06:43:03.215Z,14.70
2023-03-21T06:45:33.287Z,14.50
2023-03-21T06:48:01.720Z,14.40
2023-03-21T06:50:44.528Z,14.30
2023-03-21T06:53:12.932Z,14.20
2023-03-21T06:56:01.567Z,14.20
2023-03-21T06:58:30.424Z,14.10
2023-03-21T07:01:03.285Z,14.10
2023-03-21T07:03:35.140Z,14.00
2023-03-21T07:06:08.760Z,14.00
2023-03-21T07:08:37.208Z,14.10
2023-03-21T07:11:06.282Z,14.10
2023-03-21T07:13:34.946Z,14.10
2023-03-21T07:16:07.888Z,14.10
2023-03-21T07:18:37.093Z,14.20
2023-03-21T07:21:06.021Z,14.30
2023-03-21T07:23:35.037Z,14.50
2023-03-21T07:26:04.296Z,14.70
2023-03-21T07:28:33.774Z,14.90
2023-03-21T07:31:05.316Z,15.20
2023-03-21T07:33:35.796Z,15.60
2023-03-21T07:36:04.737Z,16.10
2023-03-21T07:38:33.115Z,16.80
2023-03-21T07:41:01.916Z,17.60
2023-03-21T07:43:34.755Z,18.20
2023-03-21T07:46:04.959Z,18.60
2023-03-21T07:48:34.752Z,18.70
2023-03-21T07:51:03.243Z,18.80
2023-03-21T07:53:31.536Z,18.90
2023-03-21T07:55:59.927Z,19.20
2023-03-21T07:58:28.677Z,19.70
2023-03-21T08:00:57.351Z,20.30
2023-03-21T08:03:26.628Z,20.80
2023-03-21T08:05:57.137Z,21.00
2023-03-21T08:08:25.513Z,21.20
2023-03-21T08:10:54.047Z,21.40
2023-03-21T08:13:23.080Z,21.60
2023-03-21T08:15:51.582Z,21.80
2023-03-21T08:18:20.073Z,22.20
2023-03-21T08:20:53.274Z,22.80
2023-03-21T08:23:23.806Z,23.50
2023-03-21T08:25:56.440Z,24.20
2023-03-21T08:28:25.838Z,24.90
2023-03-21T08:30:54.265Z,25.50
2023-03-21T08:33:23.227Z,26.10
2023-03-21T08:35:51.706Z,26.70
2023-03-21T08:38:20.778Z,27.20
2023-03-21T08:40:51.895Z,27.50
2023-03-21T08:43:20.410Z,27.90
2023-03-21T08:45:48.898Z,28.10
2023-03-21T08:48:17.295Z,28.40
2023-03-21T08:50:45.926Z,28.80
2023-03-21T08:53:14.476Z,29.10
2023-03-21T08:55:42.826Z,29.40
2023-03-21T08:58:12.618Z,29.60
2023-03-21T09:00:41.042Z,29.90
2023-03-21T09:03:11.689Z,30.20
2023-03-21T09:05:40.976Z,30.40
2023-03-21T09:08:09.576Z,30.50
2023-03-21T09:10:38.096Z,30.70
2023-03-21T09:13:06.594Z,30.90
2023-03-21T09:15:36.683Z,31.10
2023-03-21T09:18:15.194Z,31.30
2023-03-21T09:20:46.712Z,31.40
2023-03-21T09:23:16.446Z,31.50
2023-03-21T09:25:47.629Z,31.60
2023-03-21T09:28:16.561Z,31.70
2023-03-21T09:30:46.578Z,31.70
2023-03-21T09:33:19.252Z,31.70
2023-03-21T09:35:49.546Z,31.70
2023-03-21T09:38:19.474Z,31.70
2023-03-21T09:40:59.528Z,31.60
2023-03-21T09:43:42.693Z,31.50
2023-03-21T09:46:20.682Z,31.40
2023-03-21T09:48:58.190Z,31.50
2023-03-21T09:51:31.420Z,31.50
2023-03-21T09:54:03.942Z,31.60
2023-03-21T09:56:33.410Z,31.60
2023-03-21T09:59:03.260Z,31.60
2023-03-21T10:01:34.461Z,31.70
2023-03-21T10:04:06.716Z,31.70
2023-03-21T10:06:40.381Z,31.80
2023-03-21T10:09:16.325Z,31.90
2023-03-21T10:11:48.981Z,32.00
2023-03-21T10:14:20.983Z,32.00
2023-03-21T10:16:53.471Z,32.10
2023-03-21T10:19:23.435Z,32.10
2023-03-21T10:22:03.078Z,32.10
2023-03-21T10:24:34.904Z,32.30
2023-03-21T10:27:05.618Z,32.40
2023-03-21T10:29:38.768Z,32.40
2023-03-21T10:32:11.147Z,32.20
2023-03-21T10:34:43.558Z,31.80
2023-03-21T10:37:14.118Z,31.40
2023-03-21T10:39:44.295Z,31.20
2023-03-21T10:42:21.647Z,31.10
2023-03-21T10:44:52.534Z,31.10
2023-03-21T10:47:26.085Z,30.70
2023-03-21T10:50:11.134Z,30.10
2023-03-21T10:52:44.333Z,29.40
2023-03-21T10:55:22.783Z,29.00
2023-03-21T10:57:57.673Z,28.70
2023-03-21T11:00:30.097Z,28.30
2023-03-21T11:03:00.671Z,28.00
2023-03-21T11:05:37.034Z,27.90
2023-03-21T11:08:08.355Z,27.70
2023-03-21T11:10:38.997Z,27.30
2023-03-21T11:13:14.305Z,26.80
2023-03-21T11:15:50.433Z,26.40
2023-03-21T11:18:23.677Z,26.30
2023-03-21T11:20:55.201Z,26.50
2023-03-21T11:23:28.493Z,26.70
2023-03-21T11:25:58.384Z,26.90
2023-03-21T11:28:34.029Z,27.00
2023-03-21T11:31:04.710Z,26.90
2023-03-21T11:33:37.731Z,26.80
2023-03-21T11:36:09.170Z,26.70
2023-03-21T11:38:39.987Z,26.70
2023-03-21T11:41:09.277Z,26.90
2023-03-21T11:43:39.523Z,27.10
2023-03-21T11:46:10.111Z,27.30
2023-03-21T11:48:43.503Z,27.30
2023-03-21T11:51:24.340Z,27.40
2023-03-21T11:54:02.375Z,27.50
2023-03-21T11:56:33.761Z,27.70
2023-03-21T11:59:16.258Z,27.90
2023-03-21T12:01:59.314Z,28.20
2023-03-21T12:04:41.016Z,28.30
2023-03-21T12:07:28.641Z,28.30
2023-03-21T12:10:22.238Z,28.10
2023-03-21T12:12:57.415Z,27.80
2023-03-21T12:15:32.877Z,27.60
2023-03-21T12:18:11.707Z,27.70
2023-03-21T12:20:51.285Z,27.70
2023-03-21T12:23:37.380Z,27.40
2023-03-21T12:26:21.071Z,27.00
2023-03-21T12:29:05.114Z,26.40
2023-03-21T12:31:46.103Z,25.80
2023-03-21T12:34:29.771Z,25.10
2023-03-21T12:37:11.442Z,24.40
2023-03-21T12:39:41.878Z,23.80
2023-03-21T12:42:32.255Z,23.20
2023-03-21T12:45:15.401Z,22.70
2023-03-21T12:47:50.458Z,22.30
2023-03-21T12:50:23.520Z,22.30
2023-03-21T12:52:59.517Z,22.70
2023-03-21T12:55:31.874Z,23.30
2023-03-21T12:58:05.877Z,23.80
2023-03-21T13:00:40.318Z,24.30
2023-03-21T13:03:18.303Z,24.50
2023-03-21T13:05:51.188Z,24.70
2023-03-21T13:08:28.263Z,24.60
2023-03-21T13:11:00.082Z,24.60
2023-03-21T13:13:36.514Z,24.40
2023-03-21T13:16:12.185Z,24.20
2023-03-21T13:18:51.617Z,23.90
2023-03-21T13:21:26.939Z,23.60
2023-03-21T13:24:04.024Z,23.30
2023-03-21T13:26:40.675Z,23.00
2023-03-21T13:29:23.915Z,22.70
2023-03-21T13:31:57.381Z,22.30
2023-03-21T13:34:27.767Z,22.00
2023-03-21T13:36:58.200Z,21.70
2023-03-21T13:39:31.171Z,21.40
2023-03-21T13:42:05.946Z,21.20
2023-03-21T13:44:41.712Z,21.00
2023-03-21T13:47:31.943Z,20.80
2023-03-21T13:50:30.048Z,20.60
2023-03-21T13:53:32.349Z,20.40
2023-03-21T13:56:10.186Z,20.20
2023-03-21T13:58:40.398Z,20.00
2023-03-21T14:01:41.381Z,19.80
2023-03-21T14:04:16.091Z,19.60
2023-03-21T14:06:49.464Z,19.40
2023-03-21T14:09:23.531Z,19.20
2023-03-21T14:11:56.609Z,19.10
2023-03-21T14:14:34.935Z,18.90
2023-03-21T14:17:03.341Z,18.90
2023-03-21T14:19:33.975Z,18.90
2023-03-21T14:22:04.197Z,19.00
2023-03-21T14:24:33.534Z,19.20
2023-03-21T14:27:04.812Z,19.50
2023-03-21T14:29:35.371Z,20.10
2023-03-21T14:32:05.765Z,20.90
2023-03-21T14:34:37.197Z,21.80
2023-03-21T14:37:11.696Z,22.70
2023-03-21T14:39:40.111Z,23.50
2023-03-21T14:42:14.949Z,24.20
2023-03-21T14:44:56.919Z,24.80
2023-03-21T14:47:28.055Z,25.30
2023-03-21T14:49:58.435Z,25.70
2023-03-21T14:52:31.140Z,26.00
2023-03-21T14:55:01.179Z,26.30
2023-03-21T14:57:33.672Z,26.50
2023-03-21T15:00:12.659Z,26.70
2023-03-21T15:02:42.624Z,26.70
2023-03-21T15:05:15.925Z,26.50
2023-03-21T15:07:44.447Z,26.00
2023-03-21T15:10:18.545Z,25.50
2023-03-21T15:12:56.396Z,24.80
2023-03-21T15:15:27.575Z,24.20
2023-03-21T15:17:59.458Z,23.50
2023-03-21T15:20:33.087Z,22.90
2023-03-21T15:23:05.080Z,22.30
2023-03-21T15:25:37.494Z,21.80
2023-03-21T15:28:07.700Z,21.30
2023-03-21T15:30:36.527Z,20.80
2023-03-21T15:33:11.571Z,20.40
2023-03-21T15:35:43.085Z,20.00
2023-03-21T15:38:25.136Z,19.60
2023-03-21T15:41:13.975Z,19.30
2023-03-21T15:43:44.276Z,19.00
2023-03-21T15:46:17.914Z,18.70
2023-03-21T15:48:46.881Z,18.40
2023-03-21T15:51:23.738Z,18.20
2023-03-21T15:53:54.521Z,18.00
2023-03-21T15:56:23.783Z,17.80
2023-03-21T15:58:54.945Z,17.60
2023-03-21T16:01:26.585Z,17.40
2023-03-21T16:03:59.419Z,17.20
2023-03-21T16:06:33.963Z,17.10
2023-03-21T16:09:11.948Z,16.90
2023-03-21T16:11:41.854Z,16.80
2023-03-21T16:14:11.933Z,16.70
2023-03-21T16:16:40.841Z,16.50
2023-03-21T16:19:09.391Z,16.40
2023-03-21T16:21:38.843Z,16.30
2023-03-21T16:24:10.446Z,16.20
2023-03-21T16:26:45.920Z,16.10
2023-03-21T16:29:16.829Z,16.00
2023-03-21T16:31:47.988Z,15.80
2023-03-21T16:34:16.795Z,15.70
2023-03-21T16:36:45.208Z,15.60
2023-03-21T16:39:18.921Z,15.50
2023-03-21T16:41:48.031Z,15.40
2023-03-21T16:44:18.142Z,15.20
2023-03-21T16:46:47.247Z,15.10
2023-03-21T16:49:20.566Z,15.00
2023-03-21T16:51:48.994Z,14.90
2023-03-21T16:54:17.762Z,14.70
2023-03-21T16:56:48.735Z,14.60
2023-03-21T16:59:18.898Z,14.50
2023-03-21T17:01:48.900Z,14.30
2023-03-21T17:04:18.750Z,14.20
2023-03-21T17:06:49.453Z,14.00
2023-03-21T17:09:19.893Z,13.90
2023-03-21T17:11:49.364Z,13.80
2023-03-21T17:14:21.265Z,13.60
2023-03-21T17:16:49.864Z,13.40
2023-03-21T17:19:19.873Z,13.30
2023-03-21T17:21:48.540Z,13.20
2023-03-21T17:24:17.468Z,13.10
2023-03-21T17:26:46.251Z,13.00
2023-03-21T17:29:15.860Z,12.90
2023-03-21T17:31:48.271Z,12.80
2023-03-21T17:34:17.133Z,12.60
2023-03-21T17:36:47.489Z,12.60
2023-03-21T17:39:20.153Z,12.50
2023-03-21T17:41:48.604Z,12.40
2023-03-21T17:44:17.367Z,12.30
2023-03-21T17:46:50.201Z,12.20
2023-03-21T17:49:20.025Z,12.10
2023-03-21T17:51:48.442Z,12.10
2023-03-21T17:54:16.884Z,12.00
2023-03-21T17:56:45.329Z,11.90
2023-03-21T17:59:15.549Z,11.80
2023-03-21T18:01:44.128Z,11.70
2023-03-21T18:04:14.202Z,11.70
2023-03-21T18:06:42.569Z,11.60
2023-03-21T18:09:12.326Z,11.50
2023-03-21T18:11:42.023Z,11.50
2023-03-21T18:14:17.613Z,11.40
2023-03-21T18:16:47.758Z,11.40
2023-03-21T18:19:17.746Z,11.30
2023-03-21T18:21:46.630Z,11.30
2023-03-21T18:24:15.485Z,11.30
2023-03-21T18:26:45.922Z,11.20
2023-03-21T18:30:15.947Z,11.20
2023-03-21T18:32:07.729Z,11.10
2023-03-21T18:34:39.756Z,11.10
2023-03-21T18:37:10.902Z,11.10
2023-03-21T18:39:42.356Z,11.00
2023-03-21T18:42:17.250Z,11.00
2023-03-21T18:44:47.941Z,10.90
2023-03-21T18:47:17.383Z,10.90
2023-03-21T18:50:12.474Z,10.90
2023-03-21T18:52:36.277Z,10.80
2023-03-21T18:55:05.365Z,10.70
2023-03-21T18:57:37.541Z,10.60
2023-03-21T19:00:13.508Z,10.60
2023-03-21T19:02:47.004Z,10.60
2023-03-21T19:05:19.574Z,10.50
2023-03-21T19:07:49.265Z,10.40
2023-03-21T19:10:20.777Z,10.40
2023-03-21T19:12:50.037Z,10.40
2023-03-21T19:15:21.869Z,10.30
2023-03-21T19:18:37.218Z,10.30
2023-03-21T19:20:46.271Z,10.30
2023-03-21T19:23:17.001Z,10.30
2023-03-21T19:25:45.906Z,10.20
2023-03-21T19:28:14.287Z,10.20
2023-03-21T19:30:49.717Z,10.10
2023-03-21T19:33:20.101Z,10.10
2023-03-21T19:36:08.877Z,10.10
2023-03-21T19:38:39.433Z,10.00
2023-03-21T19:41:07.705Z,9.90
2023-03-21T19:43:36.755Z,9.90
2023-03-21T19:46:05.235Z,9.90
2023-03-21T19:48:33.849Z,9.80
2023-03-21T19:53:52.198Z,9.70
2023-03-21T19:56:24.436Z,9.60
2023-03-21T19:58:54.927Z,9.60
2023-03-21T20:01:24.279Z,9.60
2023-03-21T20:03:53.752Z,9.60
2023-03-21T20:06:24.106Z,9.50
2023-03-21T20:11:42.177Z,9.50
2023-03-21T20:14:10.622Z,9.50
2023-03-21T20:16:43.321Z,9.50
2023-03-21T20:19:16.352Z,9.40
2023-03-21T20:21:54.056Z,9.40
2023-03-21T20:24:25.150Z,9.40
2023-03-21T20:26:55.013Z,9.40
2023-03-21T20:32:12.414Z,9.30
2023-03-21T20:34:41.499Z,9.30
2023-03-21T20:37:12.589Z,9.30
2023-03-21T20:39:41.330Z,9.30
2023-03-21T20:42:09.678Z,9.20
2023-03-21T20:44:57.918Z,9.20
2023-03-21T20:47:26.577Z,9.20
2023-03-21T20:49:56.866Z,9.10
2023-03-21T20:52:54.812Z,9.10
2023-03-21T20:55:17.423Z,9.10
2023-03-21T20:57:48.614Z,9.10
2023-03-21T21:00:18.183Z,9.10
2023-03-21T21:02:48.784Z,9.00
2023-03-21T21:05:27.451Z,9.00
2023-03-21T21:07:59.030Z,9.00
2023-03-21T21:10:27.749Z,8.90
2023-03-21T21:12:57.054Z,8.90
2023-03-21T21:15:25.466Z,8.90
2023-03-21T21:18:06.543Z,8.90
2023-03-21T21:20:36.598Z,8.80
2023-03-21T21:23:06.629Z,8.80
2023-03-21T21:25:36.211Z,8.80
2023-03-21T21:28:09.197Z,8.80
2023-03-21T21:30:41.977Z,8.70
2023-03-21T21:33:10.706Z,8.70
2023-03-21T21:35:39.603Z,8.70
2023-03-21T21:38:09.400Z,8.60
2023-03-21T21:40:38.142Z,8.60
2023-03-21T21:43:06.894Z,8.50
2023-03-21T21:45:36.612Z,8.40
2023-03-21T21:48:05.292Z,8.30
2023-03-21T21:50:33.797Z,8.30
2023-03-21T21:53:03.994Z,8.20
2023-03-21T21:55:34.505Z,8.10
2023-03-21T21:58:04.017Z,8.10
2023-03-21T22:00:34.257Z,8.00
2023-03-21T22:03:03.364Z,7.90
2023-03-21T22:05:31.787Z,7.90
2023-03-21T22:08:00.177Z,7.90
2023-03-21T22:10:28.612Z,7.80
2023-03-21T22:12:58.316Z,7.80
2023-03-21T22:15:26.793Z,7.70
2023-03-21T22:17:55.132Z,7.70
2023-03-21T22:20:23.652Z,7.70
2023-03-21T22:22:52.244Z,7.70
2023-03-21T22:25:20.846Z,7.60
2023-03-21T22:27:49.267Z,7.60
2023-03-21T22:30:19.434Z,7.70
2023-03-21T22:33:02.565Z,7.60
2023-03-21T22:35:36.804Z,7.60
2023-03-21T22:38:05.278Z,7.60
2023-03-21T22:40:33.724Z,7.60
2023-03-21T22:43:02.167Z,7.50
2023-03-21T22:45:33.074Z,7.30
2023-03-21T22:48:01.432Z,7.20
2023-03-21T22:50:30.241Z,7.10
2023-03-21T22:52:58.636Z,7.00
2023-03-21T22:55:27.098Z,6.90
2023-03-21T22:57:55.836Z,7.00
2023-03-21T23:00:24.339Z,6.90
2023-03-21T23:02:54.420Z,6.90
2023-03-21T23:05:22.900Z,6.90
2023-03-21T23:07:51.221Z,6.90
2023-03-21T23:10:20.089Z,6.90
2023-03-21T23:12:48.666Z,6.90
2023-03-21T23:15:17.121Z,7.00
2023-03-21T23:17:45.709Z,7.00
2023-03-21T23:20:15.448Z,7.10
2023-03-21T23:22:43.859Z,7.10
2023-03-21T23:25:12.893Z,7.20
2023-03-21T23:27:41.286Z,7.20
2023-03-21T23:30:10.150Z,7.20
2023-03-21T23:32:38.718Z,7.20
2023-03-21T23:35:08.007Z,7.30
2023-03-21T23:37:37.837Z,7.30
2023-03-21T23:40:07.372Z,7.30
2023-03-21T23:42:36.394Z,7.40
2023-03-21T23:45:05.140Z,7.40
2023-03-21T23:47:33.469Z,7.50
2023-03-21T23:50:01.922Z,7.50
2023-03-21T23:52:30.306Z,7.50
2023-03-21T23:55:00.254Z,7.60
2023-03-21T23:57:28.618Z,7.60
2023-03-21T23:59:58.484Z,7.70
